Time;durP1;ratioP1;P1;durP2;ratioP2;P2;SDS_P1;SDS_P2;PMS_P1;PMS_P2;Temp;Humidity;BMP_temperature;BMP_pressure;BME280_temperature;BME280_humidity;BME280_pressure;Samples;Min_cycle;Max_cycle;Signal;HPM_P1;HPM_P2
2021/12/30 20:23:21;;;;;;;20.05;3.65;;;13.00;99.90;;;;;;5122774;27;20413;-77
2021/12/30 20:25:47;;;;;;;23.65;4.40;;;12.80;99.90;;;;;;5101192;28;20040;-77
2021/12/30 20:28:14;;;;;;;20.38;3.40;;;12.80;99.90;;;;;;5117157;27;20579;-76
2021/12/30 20:30:42;;;;;;;17.77;3.88;;;12.80;99.90;;;;;;5099892;28;20043;-76
2021/12/30 20:33:08;;;;;;;18.83;3.90;;;12.80;99.90;;;;;;5114261;28;20128;-77
2021/12/30 20:35:36;;;;;;;16.70;3.58;;;12.80;99.90;;;;;;5102372;28;20093;-76
2021/12/30 20:38:03;;;;;;;12.60;3.28;;;12.80;99.90;;;;;;5116120;28;20032;-76
2021/12/30 20:40:31;;;;;;;13.52;3.22;;;12.80;99.90;;;;;;5120209;28;20115;-76
2021/12/30 20:42:58;;;;;;;17.52;4.25;;;13.20;99.90;;;;;;5116463;27;20501;-77
2021/12/30 20:45:25;;;;;;;13.80;2.78;;;12.80;99.90;;;;;;5115954;27;20610;-77
2021/12/30 20:47:52;;;;;;;15.75;3.88;;;12.80;99.90;;;;;;5100987;28;20039;-76
2021/12/30 20:50:25;;;;;;;20.70;4.13;;;12.80;99.90;;;;;;5118121;28;20039;-77
2021/12/30 20:52:51;;;;;;;16.23;4.25;;;12.80;99.90;;;;;;5097135;28;20058;-76
2021/12/30 20:55:20;;;;;;;20.63;5.00;;;12.80;99.90;;;;;;5103310;28;20047;-76
2021/12/30 20:57:47;;;;;;;18.95;4.50;;;12.80;99.90;;;;;;5121035;27;20043;-76
2021/12/30 21:00:17;;;;;;;16.48;3.75;;;12.70;99.90;;;;;;5121946;27;20126;-77
2021/12/30 21:02:42;;;;;;;17.55;3.40;;;12.70;99.90;;;;;;5118303;28;20088;-76
2021/12/30 21:05:09;;;;;;;14.40;4.20;;;12.80;99.90;;;;;;5102502;28;20130;-76
2021/12/30 21:07:35;;;;;;;16.13;3.65;;;12.80;99.90;;;;;;5099512;28;20131;-76
2021/12/30 21:10:03;;;;;;;19.00;3.30;;;12.80;99.90;;;;;;5118667;28;20207;-76
2021/12/30 21:12:29;;;;;;;14.73;3.80;;;12.70;99.90;;;;;;5096684;28;20043;-76
2021/12/30 21:14:55;;;;;;;16.58;3.13;;;12.80;99.90;;;;;;5102139;28;20039;-76
2021/12/30 21:17:24;;;;;;;12.90;3.05;;;12.80;99.90;;;;;;5099512;28;20044;-76
2021/12/30 21:19:50;;;;;;;20.45;3.60;;;12.80;99.90;;;;;;5098694;28;20154;-76
2021/12/30 21:22:16;;;;;;;12.70;3.47;;;12.80;99.90;;;;;;5095082;28;20230;-76
2021/12/30 21:24:42;;;;;;;14.13;2.97;;;12.80;99.90;;;;;;5088113;28;20044;-76
2021/12/30 21:27:08;;;;;;;12.45;2.72;;;12.80;99.90;;;;;;5089352;28;20485;-76
2021/12/30 21:29:33;;;;;;;10.65;2.50;;;12.80;99.90;;;;;;5103632;28;20504;-76
2021/12/30 21:31:59;;;;;;;10.50;2.60;;;12.90;99.90;;;;;;5100438;28;20039;-76
2021/12/30 21:34:25;;;;;;;13.65;3.65;;;12.80;99.90;;;;;;5104782;28;20082;-75
2021/12/30 21:36:51;;;;;;;11.63;2.47;;;12.80;99.90;;;;;;5104066;28;20088;-76
2021/12/30 21:39:16;;;;;;;20.00;3.38;;;12.90;99.90;;;;;;5104647;27;20486;-76
2021/12/30 21:41:42;;;;;;;12.27;2.25;;;12.90;99.90;;;;;;5101853;28;20383;-75
2021/12/30 21:44:08;;;;;;;10.57;3.00;;;12.80;99.90;;;;;;5087296;28;20525;-75
2021/12/30 21:46:34;;;;;;;12.85;2.20;;;12.90;99.90;;;;;;5104139;28;20044;-75
2021/12/30 21:49:00;;;;;;;11.57;2.42;;;12.90;99.90;;;;;;5104402;28;20037;-75
2021/12/30 21:51:26;;;;;;;11.70;1.95;;;12.90;99.90;;;;;;5086188;28;20078;-76
2021/12/30 21:53:52;;;;;;;8.65;2.22;;;12.90;99.90;;;;;;5100991;28;20073;-75
2021/12/30 21:56:18;;;;;;;15.57;2.15;;;12.90;99.90;;;;;;5086834;28;20074;-75
2021/12/30 21:58:44;;;;;;;8.93;2.00;;;12.90;99.90;;;;;;5081656;28;20035;-75
2021/12/30 22:01:10;;;;;;;14.82;2.33;;;12.90;99.90;;;;;;5114036;27;20036;-75
2021/12/30 22:03:36;;;;;;;10.35;2.17;;;12.80;99.90;;;;;;5083134;28;20202;-75
2021/12/30 22:06:03;;;;;;;16.40;3.38;;;12.90;99.90;;;;;;5070638;28;20448;-76
2021/12/30 22:08:29;;;;;;;12.35;2.20;;;12.90;99.90;;;;;;5082748;28;20696;-75
2021/12/30 22:10:56;;;;;;;11.75;2.22;;;12.90;99.90;;;;;;5104066;28;20500;-75
2021/12/30 22:13:23;;;;;;;16.63;2.50;;;12.90;99.90;;;;;;5097014;28;20069;-75
2021/12/30 22:15:51;;;;;;;11.70;2.08;;;12.90;99.90;;;;;;5088855;28;20035;-75
2021/12/30 22:18:17;;;;;;;14.25;2.85;;;12.90;99.90;;;;;;5103210;28;20124;-76
2021/12/30 22:20:43;;;;;;;14.95;2.80;;;12.90;99.90;;;;;;5086052;28;20039;-76
2021/12/30 22:23:11;;;;;;;13.32;2.38;;;12.90;99.90;;;;;;5080614;28;20106;-75
2021/12/30 22:25:38;;;;;;;12.90;2.30;;;12.90;99.90;;;;;;5069703;28;20035;-76
2021/12/30 22:28:06;;;;;;;12.48;2.55;;;12.90;99.90;;;;;;5103158;28;20505;-76
2021/12/30 22:30:32;;;;;;;17.15;3.28;;;12.90;99.90;;;;;;5101912;28;20044;-75
2021/12/30 22:32:57;;;;;;;20.10;2.60;;;12.80;99.90;;;;;;5080216;28;20563;-76
2021/12/30 22:35:23;;;;;;;13.05;3.53;;;12.80;99.90;;;;;;5080296;28;20039;-76
2021/12/30 22:37:50;;;;;;;14.23;2.88;;;12.80;99.90;;;;;;5099717;28;20174;-75
2021/12/30 22:40:16;;;;;;;17.02;3.70;;;12.80;99.90;;;;;;5078660;28;20044;-76
2021/12/30 22:42:42;;;;;;;13.27;2.95;;;12.80;99.90;;;;;;5077535;28;20043;-75
2021/12/30 22:45:10;;;;;;;12.70;3.08;;;12.80;99.90;;;;;;5096933;28;20658;-76
2021/12/30 22:47:36;;;;;;;15.50;3.10;;;12.80;99.90;;;;;;5066620;28;20044;-75
2021/12/30 22:50:04;;;;;;;16.42;3.20;;;12.80;99.90;;;;;;5082530;28;20044;-76
2021/12/30 22:52:31;;;;;;;17.23;3.38;;;12.80;99.90;;;;;;5080588;28;20078;-75
2021/12/30 22:55:01;;;;;;;20.35;3.10;;;12.80;99.90;;;;;;5097811;28;20802;-76
2021/12/30 22:57:28;;;;;;;16.15;3.80;;;12.80;99.90;;;;;;5084870;28;20044;-75
2021/12/30 22:59:54;;;;;;;14.63;2.97;;;12.80;99.90;;;;;;5098784;28;20446;-76
2021/12/30 23:02:21;;;;;;;16.02;3.22;;;12.70;99.90;;;;;;5079799;28;20051;-75
2021/12/30 23:04:47;;;;;;;14.48;2.35;;;12.80;99.90;;;;;;5080987;28;20047;-75
2021/12/30 23:07:13;;;;;;;19.95;2.85;;;12.70;99.90;;;;;;5082726;28;20143;-75
2021/12/30 23:09:38;;;;;;;12.90;3.28;;;12.80;99.90;;;;;;5098320;28;20122;-75
2021/12/30 23:12:05;;;;;;;13.10;2.97;;;12.80;99.90;;;;;;5081402;28;20051;-75
2021/12/30 23:14:30;;;;;;;12.52;2.67;;;12.90;99.90;;;;;;5076788;28;21268;-75
2021/12/30 23:16:56;;;;;;;16.75;3.30;;;12.80;99.90;;;;;;5082380;28;20028;-74
2021/12/30 23:19:27;;;;;;;15.27;2.00;;;12.80;99.90;;;;;;5067592;28;20531;-74
2021/12/30 23:21:53;;;;;;;13.63;2.50;;;12.80;99.90;;;;;;5080207;28;20048;-74
2021/12/30 23:24:19;;;;;;;13.52;2.42;;;12.80;99.90;;;;;;5080732;28;20116;-74
2021/12/30 23:26:45;;;;;;;11.32;2.90;;;12.80;99.90;;;;;;5084679;28;20047;-74
2021/12/30 23:29:10;;;;;;;10.68;2.67;;;12.70;99.90;;;;;;5087290;28;20394;-74
2021/12/30 23:31:37;;;;;;;14.88;3.22;;;12.70;99.90;;;;;;5079956;28;20050;-74
2021/12/30 23:34:03;;;;;;;11.55;2.50;;;12.70;99.90;;;;;;5098854;28;20044;-74
2021/12/30 23:36:30;;;;;;;9.48;1.88;;;12.80;99.90;;;;;;5082071;28;20137;-74
2021/12/30 23:38:56;;;;;;;9.55;1.55;;;12.80;99.90;;;;;;5083841;28;20044;-74
2021/12/30 23:41:21;;;;;;;10.93;1.75;;;12.80;99.90;;;;;;5099460;28;20055;-74
2021/12/30 23:43:47;;;;;;;9.40;1.75;;;12.80;99.90;;;;;;5097862;28;20047;-74
2021/12/30 23:46:13;;;;;;;9.57;1.50;;;12.80;99.90;;;;;;5081360;28;20043;-74
2021/12/30 23:48:39;;;;;;;15.55;2.22;;;12.80;99.90;;;;;;5101739;28;20035;-74
2021/12/30 23:51:05;;;;;;;10.35;2.30;;;12.80;99.90;;;;;;5099044;28;20285;-74
2021/12/30 23:53:31;;;;;;;10.60;2.05;;;12.80;99.90;;;;;;5082507;28;20054;-74
2021/12/30 23:55:57;;;;;;;11.65;1.77;;;12.80;99.90;;;;;;5100111;28;20062;-74
2021/12/30 23:58:22;;;;;;;8.63;1.63;;;12.80;99.90;;;;;;5085441;28;20699;-74
